Time;durP1;ratioP1;P1;durP2;ratioP2;P2;SDS_P1;SDS_P2;PMS_P1;PMS_P2;Temp;Humidity;BMP_temperature;BMP_pressure;BME280_temperature;BME280_humidity;BME280_pressure;Samples;Min_cycle;Max_cycle;Signal;HPM_P1;HPM_P2
2022/07/09 00:08:40;;;;;;;0.20;0.10;;;;;;;;;;6113413;23;20466;-91
2022/07/09 00:14:52;;;;;;;0.20;0.10;;;;;;;;;;6007354;23;20028;-91
2022/07/09 00:17:47;;;;;;;0.20;0.10;;;;;;;;;;6013492;23;20375;-90
2022/07/09 00:20:25;;;;;;;0.20;0.13;;;;;;;;;;6051142;23;20054;-92
2022/07/09 00:23:19;;;;;;;;;;;;;;;;;;;;;
2022/07/09 00:42:41;;;;;;;0.20;0.10;;;;;;;;;;6121626;23;20501;-93
2022/07/09 00:45:34;;;;;;;0.20;0.10;;;;;;;;;;6154323;23;20088;-91
2022/07/09 00:58:49;;;;;;;0.20;0.10;;;;;;;;;;6139606;23;20034;-91
2022/07/09 01:01:18;;;;;;;0.20;0.10;;;;;;;;;;6076911;23;20096;-92
2022/07/09 01:04:05;;;;;;;0.20;0.10;;;;;;;;;;6078434;23;20021;-92
2022/07/09 01:07:19;;;;;;;0.20;0.10;;;;;;;;;;6102811;23;20464;-92
2022/07/09 01:09:53;;;;;;;0.20;0.10;;;;;;;;;;6077846;23;20033;-92
2022/07/09 01:12:31;;;;;;;0.20;0.10;;;;;;;;;;6061872;23;20017;-92
2022/07/09 01:15:37;;;;;;;0.20;0.10;;;;;;;;;;6122308;23;20018;-92
2022/07/09 01:18:07;;;;;;;0.20;0.10;;;;;;;;;;6095243;23;20014;-91
2022/07/09 01:20:57;;;;;;;;;;;;;;;;;;;;;
2022/07/09 01:23:41;;;;;;;0.20;0.10;;;;;;;;;;6119259;23;20030;-91
2022/07/09 01:26:08;;;;;;;0.20;0.08;;;;;;;;;;6091158;23;20049;-91
2022/07/09 01:29:10;;;;;;;;;;;;;;;;;;;;;
2022/07/09 01:31:58;;;;;;;0.20;0.10;;;;;;;;;;6145326;23;20022;-92
2022/07/09 01:34:53;;;;;;;0.20;0.10;;;;;;;;;;6093983;23;20085;-92
2022/07/09 01:37:47;;;;;;;0.20;0.10;;;;;;;;;;6027034;23;20014;-92
2022/07/09 01:43:46;;;;;;;0.20;0.05;;;;;;;;;;6042321;23;20079;-91
2022/07/09 01:46:35;;;;;;;0.20;0.10;;;;;;;;;;6014514;23;20095;-93
2022/07/09 01:49:07;;;;;;;0.20;0.10;;;;;;;;;;6015988;23;20023;-92
2022/07/09 01:51:59;;;;;;;0.20;0.10;;;;;;;;;;6011929;23;20054;-92
2022/07/09 02:04:53;;;;;;;0.20;0.10;;;;;;;;;;6062481;23;20018;-91
2022/07/09 02:08:04;;;;;;;0.20;0.10;;;;;;;;;;6044706;23;20034;-93
2022/07/09 02:30:58;;;;;;;0.20;0.17;;;;;;;;;;6012281;23;20448;-91
2022/07/09 02:34:05;;;;;;;0.20;0.10;;;;;;;;;;5871860;24;20047;-92
2022/07/09 02:37:22;;;;;;;0.20;0.10;;;;;;;;;;5786027;24;20019;-92
2022/07/09 02:59:24;;;;;;;0.20;0.10;;;;;;;;;;6119463;23;20026;-93
2022/07/09 03:02:31;;;;;;;0.20;0.10;;;;;;;;;;6075738;23;20289;-89
2022/07/09 03:18:26;;;;;;;0.20;0.10;;;;;;;;;;6140451;23;20017;-89
2022/07/09 03:21:01;;;;;;;0.20;0.10;;;;;;;;;;6129178;23;20017;-91
2022/07/09 03:24:15;;;;;;;0.20;0.10;;;;;;;;;;6155356;23;20056;-92
2022/07/09 03:27:25;;;;;;;0.20;0.10;;;;;;;;;;6140092;23;20017;-90
2022/07/09 03:30:18;;;;;;;0.20;0.10;;;;;;;;;;6098842;23;20048;-92
2022/07/09 03:55:24;;;;;;;0.20;0.10;;;;;;;;;;6144772;23;20044;-92
2022/07/09 03:57:48;;;;;;;0.20;0.10;;;;;;;;;;6115664;23;20024;-93
2022/07/09 04:00:53;;;;;;;0.20;0.10;;;;;;;;;;6114553;23;20013;-92
2022/07/09 04:03:59;;;;;;;0.20;0.10;;;;;;;;;;6098826;23;20088;-92
2022/07/09 04:21:00;;;;;;;0.20;0.10;;;;;;;;;;5996089;23;20015;-91
2022/07/09 04:30:29;;;;;;;0.20;0.10;;;;;;;;;;5894218;24;20065;-91
2022/07/09 04:33:10;;;;;;;0.20;0.10;;;;;;;;;;5921970;24;20025;-92
2022/07/09 04:36:06;;;;;;;0.20;0.10;;;;;;;;;;5928278;24;20028;-91
2022/07/09 04:38:50;;;;;;;;;;;;;;;;;;;;;
2022/07/09 04:48:18;;;;;;;0.20;0.10;;;;;;;;;;5923739;24;20028;-92
2022/07/09 04:51:10;;;;;;;0.20;0.10;;;;;;;;;;5997808;23;20341;-93
2022/07/09 04:54:00;;;;;;;0.20;0.10;;;;;;;;;;6052707;23;20025;-95
2022/07/09 04:56:37;;;;;;;0.20;0.10;;;;;;;;;;6100504;23;20061;-93
2022/07/09 04:59:22;;;;;;;;;;;;;;;;;;;;;
2022/07/09 05:08:34;;;;;;;0.20;0.10;;;;;;;;;;5988059;23;20032;-91
2022/07/09 05:11:09;;;;;;;0.20;0.20;;;;;;;;;;6059253;23;20014;-92
2022/07/09 05:13:47;;;;;;;;;;;;;;;;;;;;;
2022/07/09 05:27:44;;;;;;;0.20;0.10;;;;;;;;;;6150398;23;20053;-91
2022/07/09 05:30:23;;;;;;;0.20;0.10;;;;;;;;;;6020040;23;20015;-90
2022/07/09 05:33:19;;;;;;;0.20;0.10;;;;;;;;;;6104384;23;20156;-90
2022/07/09 05:35:50;;;;;;;0.20;0.10;;;;;;;;;;6066075;23;20104;-89
2022/07/09 05:38:34;;;;;;;0.20;0.10;;;;;;;;;;6102910;23;20092;-88
2022/07/09 05:41:27;;;;;;;;;;;;;;;;;;;;;
2022/07/09 05:51:26;;;;;;;0.20;0.10;;;;;;;;;;5974886;23;20104;-91
2022/07/09 05:58:04;;;;;;;0.20;0.10;;;;;;;;;;6047798;23;20102;-91
2022/07/09 06:04:26;;;;;;;0.20;0.10;;;;;;;;;;6010398;23;20435;-90
2022/07/09 06:07:12;;;;;;;0.20;0.10;;;;;;;;;;6009692;23;20114;-90
2022/07/09 06:09:57;;;;;;;;;;;;;;;;;;;;;
2022/07/09 06:12:35;;;;;;;0.20;0.10;;;;;;;;;;6062967;23;20019;-90
2022/07/09 06:15:11;;;;;;;0.20;0.10;;;;;;;;;;6078004;23;20049;-91
2022/07/09 06:17:50;;;;;;;0.20;0.10;;;;;;;;;;6106660;23;20025;-91
2022/07/09 06:26:46;;;;;;;0.20;0.10;;;;;;;;;;6155614;23;20072;-90
2022/07/09 06:29:24;;;;;;;0.20;0.10;;;;;;;;;;6149929;23;20076;-91
2022/07/09 06:45:53;;;;;;;0.20;0.10;;;;;;;;;;6067293;23;20041;-92
2022/07/09 06:51:44;;;;;;;0.20;0.10;;;;;;;;;;6068178;23;20030;-92
2022/07/09 07:08:01;;;;;;;0.20;0.10;;;;;;;;;;5957976;23;20034;-92
2022/07/09 07:21:19;;;;;;;0.20;0.10;;;;;;;;;;5934656;24;20064;-91
2022/07/09 07:24:30;;;;;;;0.20;0.10;;;;;;;;;;5916618;24;20484;-91
2022/07/09 07:31:04;;;;;;;0.20;0.10;;;;;;;;;;5933986;24;20029;-91
2022/07/09 07:37:34;;;;;;;;;;;;;;;;;;;;;
2022/07/09 07:57:15;;;;;;;0.20;0.10;;;;;;;;;;6068155;23;20021;-92
2022/07/09 08:05:38;;;;;;;0.20;0.10;;;;;;;;;;6098857;23;20023;-91
2022/07/09 08:08:10;;;;;;;0.20;0.10;;;;;;;;;;6034655;23;20025;-92
2022/07/09 08:30:00;;;;;;;0.20;0.10;;;;;;;;;;6154859;23;20021;-91
2022/07/09 08:33:01;;;;;;;0.20;0.10;;;;;;;;;;6088832;23;20026;-92
2022/07/09 08:35:40;;;;;;;0.20;0.10;;;;;;;;;;6123645;23;20494;-93
2022/07/09 08:41:58;;;;;;;0.20;0.10;;;;;;;;;;6127502;23;20493;-91
2022/07/09 08:45:16;;;;;;;;;;;;;;;;;;;;;
2022/07/09 08:48:01;;;;;;;0.20;0.10;;;;;;;;;;6132319;23;20025;-92
2022/07/09 08:53:38;;;;;;;0.20;0.10;;;;;;;;;;6158169;23;20011;-92
2022/07/09 08:56:43;;;;;;;0.20;0.10;;;;;;;;;;5940252;24;20021;-90
2022/07/09 09:12:35;;;;;;;0.20;0.10;;;;;;;;;;5932137;24;20034;-92
2022/07/09 09:26:16;;;;;;;;;;;;;;;;;;;;;
2022/07/09 09:29:09;;;;;;;0.20;0.10;;;;;;;;;;5991884;23;20042;-92
2022/07/09 09:39:31;;;;;;;0.20;0.10;;;;;;;;;;6128119;23;20026;-86
2022/07/09 09:41:58;;;;;;;0.20;0.10;;;;;;;;;;6081243;23;20025;-87
2022/07/09 09:44:29;;;;;;;0.20;0.10;;;;;;;;;;6077958;23;20060;-87
2022/07/09 09:46:55;;;;;;;0.20;0.10;;;;;;;;;;6076939;23;20025;-88
2022/07/09 09:49:27;;;;;;;0.20;0.10;;;;;;;;;;6078824;23;20101;-87
2022/07/09 09:52:26;;;;;;;0.20;0.10;;;;;;;;;;6103341;23;20073;-86
2022/07/09 09:54:52;;;;;;;0.20;0.10;;;;;;;;;;6076931;23;20056;-88
2022/07/09 09:57:33;;;;;;;0.20;0.10;;;;;;;;;;6079895;23;20485;-88
2022/07/09 10:00:00;;;;;;;0.20;0.10;;;;;;;;;;6097965;23;20017;-88
2022/07/09 10:02:38;;;;;;;0.20;0.10;;;;;;;;;;6079213;23;20018;-89
2022/07/09 10:05:04;;;;;;;0.20;0.10;;;;;;;;;;6078775;23;20073;-87
2022/07/09 10:07:32;;;;;;;0.20;0.10;;;;;;;;;;6085713;23;20017;-87
2022/07/09 10:10:02;;;;;;;0.20;0.10;;;;;;;;;;6087519;23;20021;-87
2022/07/09 10:12:31;;;;;;;;;;;;;;;;;;6088163;23;20010;-86
2022/07/09 10:15:00;;;;;;;0.20;0.10;;;;;;;;;;6110215;23;19936;-88
2022/07/09 10:17:49;;;;;;;0.20;0.10;;;;;;;;;;6082222;23;20029;-92
2022/07/09 10:20:15;;;;;;;0.20;0.10;;;;;;;;;;6084102;23;20085;-86
2022/07/09 10:22:42;;;;;;;0.20;0.10;;;;;;;;;;6085758;23;20039;-86
2022/07/09 10:25:23;;;;;;;0.20;0.10;;;;;;;;;;6084534;23;20010;-90
2022/07/09 10:27:55;;;;;;;0.20;0.10;;;;;;;;;;6086108;23;20014;-87
2022/07/09 10:30:32;;;;;;;0.20;0.10;;;;;;;;;;6110098;23;20065;-87
2022/07/09 10:33:10;;;;;;;0.20;0.10;;;;;;;;;;6107884;23;20482;-88
2022/07/09 10:36:04;;;;;;;0.20;0.10;;;;;;;;;;6077351;23;20026;-87
2022/07/09 10:38:40;;;;;;;0.20;0.10;;;;;;;;;;6132280;23;20342;-88
2022/07/09 10:41:06;;;;;;;0.20;0.10;;;;;;;;;;6154470;23;20025;-87
2022/07/09 10:43:40;;;;;;;0.20;0.10;;;;;;;;;;6130967;23;20024;-90
2022/07/09 10:46:16;;;;;;;0.20;0.10;;;;;;;;;;6130245;23;20040;-89
2022/07/09 10:48:50;;;;;;;0.20;0.10;;;;;;;;;;6152915;23;20013;-88
2022/07/09 10:51:41;;;;;;;0.20;0.10;;;;;;;;;;6151987;23;20049;-90
2022/07/09 10:54:32;;;;;;;0.20;0.10;;;;;;;;;;6070502;23;20018;-87
2022/07/09 10:57:14;;;;;;;0.20;0.10;;;;;;;;;;6069083;23;20430;-89
2022/07/09 10:59:55;;;;;;;0.20;0.10;;;;;;;;;;6093900;23;20029;-90
2022/07/09 11:02:21;;;;;;;0.20;0.10;;;;;;;;;;6045629;23;20569;-87
2022/07/09 11:05:16;;;;;;;0.20;0.10;;;;;;;;;;6021407;23;20024;-89
2022/07/09 11:07:42;;;;;;;0.20;0.10;;;;;;;;;;6040081;23;20019;-87
2022/07/09 11:10:20;;;;;;;0.20;0.10;;;;;;;;;;6094073;23;20014;-90
2022/07/09 11:13:12;;;;;;;0.20;0.10;;;;;;;;;;6045829;23;20018;-89
2022/07/09 11:15:41;;;;;;;0.20;0.10;;;;;;;;;;6045665;23;20015;-88
2022/07/09 11:18:11;;;;;;;0.20;0.10;;;;;;;;;;6044875;23;20251;-88
2022/07/09 11:20:45;;;;;;;0.20;0.10;;;;;;;;;;6044020;23;20029;-90
2022/07/09 11:23:26;;;;;;;0.20;0.10;;;;;;;;;;6094992;23;20026;-91
2022/07/09 11:26:28;;;;;;;0.20;0.10;;;;;;;;;;6053820;23;20086;-88
2022/07/09 11:31:54;;;;;;;0.20;0.10;;;;;;;;;;6113268;23;20113;-88
2022/07/09 11:34:23;;;;;;;0.20;0.10;;;;;;;;;;6099672;23;20018;-88
2022/07/09 11:36:58;;;;;;;0.20;0.10;;;;;;;;;;6099951;23;20041;-87
2022/07/09 11:39:32;;;;;;;0.20;0.10;;;;;;;;;;6125836;23;20020;-85
2022/07/09 11:42:01;;;;;;;0.20;0.10;;;;;;;;;;6101449;23;20025;-87
2022/07/09 11:44:37;;;;;;;0.20;0.10;;;;;;;;;;6079369;23;20474;-88
2022/07/09 11:47:10;;;;;;;0.20;0.10;;;;;;;;;;6128607;23;20018;-89
2022/07/09 11:49:44;;;;;;;0.20;0.10;;;;;;;;;;6124070;23;20014;-87
2022/07/09 11:52:27;;;;;;;0.20;0.10;;;;;;;;;;6102397;23;20022;-88
2022/07/09 11:55:11;;;;;;;0.20;0.10;;;;;;;;;;6064531;23;20016;-88
2022/07/09 11:57:56;;;;;;;0.20;0.10;;;;;;;;;;6099905;23;20028;-89
2022/07/09 12:00:30;;;;;;;0.20;0.10;;;;;;;;;;6099015;23;20020;-88
2022/07/09 12:03:10;;;;;;;0.20;0.10;;;;;;;;;;6128785;23;20058;-89
2022/07/09 12:09:17;;;;;;;;;;;;;;;;;;;;;
2022/07/09 12:11:52;;;;;;;0.20;0.10;;;;;;;;;;6123538;23;20096;-88
2022/07/09 12:14:48;;;;;;;0.20;0.10;;;;;;;;;;6075207;23;20018;-90
2022/07/09 12:17:36;;;;;;;0.20;0.10;;;;;;;;;;6106057;23;20041;-88
2022/07/09 12:20:19;;;;;;;0.20;0.10;;;;;;;;;;6100955;23;20037;-89
2022/07/09 12:26:16;;;;;;;0.40;0.30;;;;;;;;;;6129245;23;20097;-89
2022/07/09 12:29:11;;;;;;;0.20;0.10;;;;;;;;;;6104649;23;20013;-88
2022/07/09 12:31:37;;;;;;;0.20;0.10;;;;;;;;;;6117352;23;20100;-89
2022/07/09 12:34:12;;;;;;;0.20;0.10;;;;;;;;;;6084904;23;20014;-90
2022/07/09 12:36:41;;;;;;;0.20;0.10;;;;;;;;;;6081499;23;20045;-88
2022/07/09 12:39:16;;;;;;;0.20;0.10;;;;;;;;;;6104620;23;20520;-87
2022/07/09 12:41:55;;;;;;;0.20;0.10;;;;;;;;;;6102606;23;20056;-89
2022/07/09 12:44:33;;;;;;;0.20;0.10;;;;;;;;;;6103664;23;20077;-87
2022/07/09 12:50:12;;;;;;;0.20;0.10;;;;;;;;;;6101124;23;20034;-86
2022/07/09 12:52:51;;;;;;;0.20;0.10;;;;;;;;;;6078588;23;20377;-89
2022/07/09 12:55:26;;;;;;;0.20;0.10;;;;;;;;;;6076291;23;20116;-88
2022/07/09 12:57:52;;;;;;;0.20;0.10;;;;;;;;;;6077502;23;20018;-87
2022/07/09 13:00:18;;;;;;;0.20;0.10;;;;;;;;;;6076378;23;20141;-87
2022/07/09 13:06:30;;;;;;;0.20;0.10;;;;;;;;;;6096379;23;20351;-88
2022/07/09 13:08:44;;;;;;;0.20;0.10;;;;;;;;;;6098235;23;20475;-85
2022/07/09 13:11:24;;;;;;;0.20;0.10;;;;;;;;;;6082946;23;20014;-86
2022/07/09 13:14:03;;;;;;;0.20;0.10;;;;;;;;;;6077252;23;20065;-88
2022/07/09 13:16:36;;;;;;;0.20;0.10;;;;;;;;;;6078878;23;20018;-88
2022/07/09 13:19:33;;;;;;;0.20;0.10;;;;;;;;;;6078376;23;20014;-89
2022/07/09 13:22:17;;;;;;;0.20;0.10;;;;;;;;;;6124102;23;20420;-88
2022/07/09 13:24:48;;;;;;;0.20;0.00;;;;;;;;;;6100093;23;20043;-89
2022/07/09 13:27:21;;;;;;;0.20;0.10;;;;;;;;;;6104098;23;20018;-86
2022/07/09 13:29:56;;;;;;;0.20;0.10;;;;;;;;;;6106066;23;20018;-86
2022/07/09 13:32:22;;;;;;;0.20;0.10;;;;;;;;;;6103321;23;20450;-87
2022/07/09 13:34:51;;;;;;;0.20;0.10;;;;;;;;;;6101223;23;20013;-85
2022/07/09 13:37:20;;;;;;;0.20;0.10;;;;;;;;;;6125939;23;20009;-89
2022/07/09 13:39:47;;;;;;;0.20;0.10;;;;;;;;;;6101941;23;20020;-87
2022/07/09 13:42:27;;;;;;;0.20;0.10;;;;;;;;;;6101222;23;20017;-90
2022/07/09 13:45:11;;;;;;;0.20;0.10;;;;;;;;;;6104123;23;20018;-87
2022/07/09 13:47:37;;;;;;;0.20;0.10;;;;;;;;;;6100588;23;20017;-86
2022/07/09 13:50:03;;;;;;;0.20;0.10;;;;;;;;;;6101586;23;20025;-87
2022/07/09 13:52:40;;;;;;;0.20;0.10;;;;;;;;;;6125831;23;20410;-86
2022/07/09 13:55:15;;;;;;;0.20;0.10;;;;;;;;;;6100771;23;20014;-90
2022/07/09 13:57:47;;;;;;;0.20;0.10;;;;;;;;;;6101622;23;20343;-87
2022/07/09 14:00:21;;;;;;;0.20;0.10;;;;;;;;;;6103593;23;20558;-89
2022/07/09 14:02:48;;;;;;;0.20;0.10;;;;;;;;;;6101769;23;20033;-86
2022/07/09 14:05:17;;;;;;;0.20;0.10;;;;;;;;;;6078433;23;20045;-88
2022/07/09 14:07:43;;;;;;;0.20;0.10;;;;;;;;;;6099812;23;20021;-87
2022/07/09 14:10:09;;;;;;;0.20;0.10;;;;;;;;;;6099718;23;20014;-86
2022/07/09 14:12:51;;;;;;;0.20;0.10;;;;;;;;;;6076310;23;20493;-86
2022/07/09 14:15:23;;;;;;;0.20;0.10;;;;;;;;;;6078920;23;20021;-86
2022/07/09 14:17:49;;;;;;;0.20;0.10;;;;;;;;;;6103365;23;20089;-89
2022/07/09 14:20:19;;;;;;;0.20;0.10;;;;;;;;;;6076396;23;20503;-86
2022/07/09 14:22:56;;;;;;;0.20;0.10;;;;;;;;;;6078010;23;20390;-89
2022/07/09 14:25:24;;;;;;;0.20;0.10;;;;;;;;;;6100256;23;20017;-87
2022/07/09 14:27:50;;;;;;;0.20;0.10;;;;;;;;;;6123400;23;20080;-87
2022/07/09 14:30:25;;;;;;;0.20;0.00;;;;;;;;;;6078425;23;20362;-87
2022/07/09 14:32:51;;;;;;;0.20;0.10;;;;;;;;;;6076590;23;20164;-86
2022/07/09 14:35:47;;;;;;;0.20;0.10;;;;;;;;;;6101149;23;20014;-89
2022/07/09 14:38:14;;;;;;;0.20;0.10;;;;;;;;;;6122883;23;20053;-88
2022/07/09 14:40:41;;;;;;;0.20;0.10;;;;;;;;;;6100519;23;20432;-86
2022/07/09 14:43:14;;;;;;;0.20;0.10;;;;;;;;;;6099321;23;20013;-86
2022/07/09 14:45:43;;;;;;;0.20;0.10;;;;;;;;;;6124030;23;20024;-88
2022/07/09 14:48:09;;;;;;;0.20;0.10;;;;;;;;;;6100489;23;20524;-86
2022/07/09 14:50:50;;;;;;;0.20;0.10;;;;;;;;;;6098825;23;20018;-88
2022/07/09 14:53:19;;;;;;;0.20;0.10;;;;;;;;;;6098296;23;20017;-88
2022/07/09 14:55:46;;;;;;;0.20;0.10;;;;;;;;;;6100188;23;20018;-86
2022/07/09 14:58:12;;;;;;;0.20;0.10;;;;;;;;;;6100684;23;20017;-86
2022/07/09 15:00:38;;;;;;;0.20;0.10;;;;;;;;;;6099420;23;20018;-88
2022/07/09 15:03:15;;;;;;;0.20;0.10;;;;;;;;;;6100149;23;20014;-87
2022/07/09 15:05:44;;;;;;;0.20;0.10;;;;;;;;;;6124429;23;20018;-88
2022/07/09 15:08:18;;;;;;;0.20;0.10;;;;;;;;;;6099714;23;20473;-85
2022/07/09 15:10:50;;;;;;;0.20;0.10;;;;;;;;;;6078200;23;20022;-85
2022/07/09 15:13:21;;;;;;;0.20;0.10;;;;;;;;;;6123454;23;20010;-85
2022/07/09 15:15:47;;;;;;;0.20;0.10;;;;;;;;;;6099519;23;20013;-88
2022/07/09 15:18:35;;;;;;;0.20;0.10;;;;;;;;;;6122991;23;20152;-89
2022/07/09 15:21:01;;;;;;;0.20;0.10;;;;;;;;;;6098657;23;20062;-89
2022/07/09 15:23:27;;;;;;;0.20;0.10;;;;;;;;;;6099259;23;20024;-86
2022/07/09 15:25:59;;;;;;;0.20;0.08;;;;;;;;;;6125115;23;20054;-86
2022/07/09 15:28:25;;;;;;;0.20;0.10;;;;;;;;;;6078510;23;20024;-86
2022/07/09 15:30:57;;;;;;;0.20;0.10;;;;;;;;;;6126021;23;20093;-89
2022/07/09 15:33:34;;;;;;;0.20;0.10;;;;;;;;;;6100868;23;20064;-90
2022/07/09 15:36:03;;;;;;;0.20;0.10;;;;;;;;;;6100791;23;20054;-88
2022/07/09 15:38:38;;;;;;;0.20;0.10;;;;;;;;;;6096942;23;20255;-86
2022/07/09 15:43:36;;;;;;;0.20;0.10;;;;;;;;;;6121448;23;20092;-89
2022/07/09 15:46:05;;;;;;;0.20;0.10;;;;;;;;;;6047635;23;20026;-87
2022/07/09 15:48:35;;;;;;;0.32;0.25;;;;;;;;;;6072787;23;20130;-88
2022/07/09 15:53:39;;;;;;;0.20;0.10;;;;;;;;;;6180362;23;20020;-87
2022/07/09 15:56:05;;;;;;;0.20;0.10;;;;;;;;;;6104036;23;20044;-86
2022/07/09 15:58:34;;;;;;;0.20;0.10;;;;;;;;;;6128396;23;20099;-84
2022/07/09 16:01:00;;;;;;;0.20;0.10;;;;;;;;;;6122422;23;20021;-86
2022/07/09 16:03:26;;;;;;;0.20;0.10;;;;;;;;;;6075127;23;20017;-86
2022/07/09 16:05:55;;;;;;;0.20;0.10;;;;;;;;;;6122462;23;20033;-86
2022/07/09 16:08:24;;;;;;;0.20;0.10;;;;;;;;;;6099272;23;20013;-88
2022/07/09 16:10:50;;;;;;;0.20;0.10;;;;;;;;;;6076690;23;20017;-87
2022/07/09 16:13:19;;;;;;;0.20;0.10;;;;;;;;;;6073870;23;20035;-86
2022/07/09 16:16:05;;;;;;;0.20;0.10;;;;;;;;;;6124479;23;20516;-91
2022/07/09 16:18:31;;;;;;;0.20;0.10;;;;;;;;;;6147402;23;20365;-86
2022/07/09 16:20:59;;;;;;;0.20;0.10;;;;;;;;;;6125502;23;20045;-89
2022/07/09 16:23:25;;;;;;;0.20;0.10;;;;;;;;;;6100667;23;20481;-88
2022/07/09 16:25:57;;;;;;;0.20;0.10;;;;;;;;;;6124420;23;20017;-89
2022/07/09 16:28:28;;;;;;;0.20;0.10;;;;;;;;;;6101406;23;20029;-89
2022/07/09 16:30:55;;;;;;;0.20;0.10;;;;;;;;;;6076354;23;20013;-85
2022/07/09 16:33:21;;;;;;;0.20;0.10;;;;;;;;;;6076809;23;20354;-86
2022/07/09 16:35:53;;;;;;;0.20;0.10;;;;;;;;;;6124439;23;20024;-87
2022/07/09 16:38:22;;;;;;;;;;;;;;;;;;6102367;23;20017;-85
2022/07/09 16:40:55;;;;;;;0.20;0.10;;;;;;;;;;6124478;23;19912;-86
2022/07/09 16:43:21;;;;;;;0.20;0.10;;;;;;;;;;6125491;23;20418;-87
2022/07/09 16:45:48;;;;;;;0.20;0.10;;;;;;;;;;6075830;23;20072;-85
2022/07/09 16:48:16;;;;;;;0.20;0.10;;;;;;;;;;6076283;23;20045;-87
2022/07/09 16:50:43;;;;;;;0.20;0.10;;;;;;;;;;6098384;23;20017;-87
2022/07/09 16:53:17;;;;;;;0.20;0.10;;;;;;;;;;6076220;23;20442;-86
2022/07/09 16:55:43;;;;;;;0.20;0.10;;;;;;;;;;6101789;23;20033;-86
2022/07/09 16:58:09;;;;;;;0.20;0.10;;;;;;;;;;6124570;23;20065;-87
2022/07/09 17:00:38;;;;;;;0.20;0.10;;;;;;;;;;6100165;23;20018;-88
2022/07/09 17:03:28;;;;;;;0.20;0.10;;;;;;;;;;6100998;23;20084;-86
2022/07/09 17:06:07;;;;;;;0.20;0.10;;;;;;;;;;6123625;23;20017;-88
2022/07/09 17:08:33;;;;;;;0.20;0.10;;;;;;;;;;6100071;23;20064;-86
2022/07/09 17:11:02;;;;;;;0.20;0.10;;;;;;;;;;6125701;23;20010;-87
2022/07/09 17:13:28;;;;;;;0.20;0.10;;;;;;;;;;6126171;23;20014;-88
2022/07/09 17:15:54;;;;;;;0.20;0.10;;;;;;;;;;6124917;23;20473;-85
2022/07/09 17:18:20;;;;;;;0.20;0.10;;;;;;;;;;6125397;23;20021;-83
2022/07/09 17:20:47;;;;;;;0.20;0.10;;;;;;;;;;6125128;23;20390;-84
2022/07/09 17:23:13;;;;;;;0.20;0.10;;;;;;;;;;6100932;23;20076;-86
2022/07/09 17:25:39;;;;;;;0.20;0.10;;;;;;;;;;6102133;23;20092;-85
2022/07/09 17:28:05;;;;;;;0.20;0.10;;;;;;;;;;6076848;23;20099;-84
2022/07/09 17:30:32;;;;;;;0.20;0.10;;;;;;;;;;6125667;23;20014;-87
2022/07/09 17:32:58;;;;;;;0.20;0.10;;;;;;;;;;6077826;23;20454;-89
2022/07/09 17:35:24;;;;;;;0.20;0.10;;;;;;;;;;6125423;23;20013;-85
2022/07/09 17:37:58;;;;;;;0.20;0.10;;;;;;;;;;6077473;23;20020;-88
2022/07/09 17:40:27;;;;;;;0.20;0.15;;;;;;;;;;6125685;23;20019;-86
2022/07/09 17:42:56;;;;;;;0.20;0.10;;;;;;;;;;6101426;23;20283;-88
2022/07/09 17:45:25;;;;;;;0.20;0.10;;;;;;;;;;6101090;23;20019;-87
2022/07/09 17:47:51;;;;;;;0.20;0.10;;;;;;;;;;6123292;23;20013;-85
2022/07/09 17:50:17;;;;;;;0.20;0.10;;;;;;;;;;6101438;23;20009;-86
2022/07/09 17:52:44;;;;;;;0.20;0.10;;;;;;;;;;6100937;23;20013;-86
2022/07/09 17:55:20;;;;;;;0.20;0.10;;;;;;;;;;6125064;23;20016;-86
2022/07/09 17:57:56;;;;;;;0.20;0.10;;;;;;;;;;6125633;23;20020;-86
2022/07/09 18:00:24;;;;;;;0.20;0.10;;;;;;;;;;6125993;23;20016;-86
2022/07/09 18:02:50;;;;;;;0.20;0.10;;;;;;;;;;6124759;23;20454;-85
2022/07/09 18:05:17;;;;;;;0.20;0.10;;;;;;;;;;6123875;23;20065;-85
2022/07/09 18:07:43;;;;;;;0.20;0.10;;;;;;;;;;6101153;23;20021;-86
2022/07/09 18:10:13;;;;;;;0.20;0.10;;;;;;;;;;6101539;23;20044;-87
2022/07/09 18:12:39;;;;;;;0.20;0.10;;;;;;;;;;6101175;23;20454;-87
2022/07/09 18:15:17;;;;;;;0.20;0.10;;;;;;;;;;6125127;23;20024;-87
2022/07/09 18:17:43;;;;;;;0.20;0.10;;;;;;;;;;6125897;23;20374;-85
2022/07/09 18:20:20;;;;;;;0.20;0.10;;;;;;;;;;6126811;23;20019;-86
2022/07/09 18:22:51;;;;;;;0.20;0.10;;;;;;;;;;6101359;23;20477;-88
2022/07/09 18:25:18;;;;;;;0.20;0.10;;;;;;;;;;6101498;23;20009;-86
2022/07/09 18:27:46;;;;;;;0.20;0.10;;;;;;;;;;6101083;23;20013;-86
2022/07/09 18:30:15;;;;;;;0.20;0.10;;;;;;;;;;6077686;23;20291;-88
2022/07/09 18:32:41;;;;;;;0.20;0.10;;;;;;;;;;6125906;23;20020;-85
2022/07/09 18:35:08;;;;;;;0.20;0.10;;;;;;;;;;6125109;23;20465;-87
2022/07/09 18:37:34;;;;;;;0.20;0.10;;;;;;;;;;6125730;23;20019;-88
2022/07/09 18:40:03;;;;;;;0.20;0.10;;;;;;;;;;6126577;23;20096;-86
2022/07/09 18:42:29;;;;;;;0.20;0.10;;;;;;;;;;6125538;23;20049;-87
2022/07/09 18:44:55;;;;;;;0.20;0.10;;;;;;;;;;6125678;23;20048;-87
2022/07/09 18:47:25;;;;;;;0.20;0.10;;;;;;;;;;6077670;23;20068;-85
2022/07/09 18:49:51;;;;;;;0.20;0.10;;;;;;;;;;6102539;23;20024;-85
2022/07/09 18:52:17;;;;;;;0.20;0.10;;;;;;;;;;6125593;23;20466;-88
2022/07/09 18:54:48;;;;;;;0.20;0.10;;;;;;;;;;6126087;23;20014;-89
2022/07/09 18:57:17;;;;;;;0.20;0.10;;;;;;;;;;6102678;23;20021;-85
2022/07/09 18:59:43;;;;;;;0.20;0.10;;;;;;;;;;6078395;23;20013;-88
2022/07/09 19:02:09;;;;;;;0.20;0.10;;;;;;;;;;6077887;23;20013;-88
2022/07/09 19:04:35;;;;;;;0.20;0.10;;;;;;;;;;6077116;23;20021;-87
2022/07/09 19:07:02;;;;;;;0.20;0.10;;;;;;;;;;6126824;23;20457;-86
2022/07/09 19:09:29;;;;;;;0.20;0.10;;;;;;;;;;6126343;23;20064;-87
2022/07/09 19:11:55;;;;;;;0.20;0.10;;;;;;;;;;6126815;23;20458;-87
2022/07/09 19:14:22;;;;;;;0.20;0.10;;;;;;;;;;6100971;23;20014;-84
2022/07/09 19:16:50;;;;;;;0.20;0.10;;;;;;;;;;6076105;23;20017;-86
2022/07/09 19:19:17;;;;;;;0.20;0.10;;;;;;;;;;6076850;23;20437;-87
2022/07/09 19:21:43;;;;;;;0.60;0.35;;;;;;;;;;6126050;23;20029;-86
2022/07/09 19:24:13;;;;;;;0.20;0.10;;;;;;;;;;6099824;23;20077;-86
2022/07/09 19:26:45;;;;;;;0.20;0.10;;;;;;;;;;6126348;23;20024;-88
2022/07/09 19:29:11;;;;;;;0.20;0.10;;;;;;;;;;6078472;23;20039;-87
2022/07/09 19:34:22;;;;;;;0.20;0.10;;;;;;;;;;6104604;23;20013;-87
2022/07/09 19:36:48;;;;;;;0.20;0.10;;;;;;;;;;6125548;23;20013;-87
2022/07/09 19:39:19;;;;;;;0.20;0.10;;;;;;;;;;6125486;23;20028;-88
2022/07/09 19:41:57;;;;;;;0.20;0.10;;;;;;;;;;6100221;23;20476;-86
2022/07/09 19:44:25;;;;;;;0.20;0.10;;;;;;;;;;6125287;23;20361;-86
2022/07/09 19:46:52;;;;;;;0.20;0.10;;;;;;;;;;6125232;23;20342;-87
2022/07/09 19:49:18;;;;;;;0.20;0.10;;;;;;;;;;6101113;23;20018;-89
2022/07/09 19:51:47;;;;;;;0.20;0.00;;;;;;;;;;6126023;23;20268;-88
2022/07/09 19:54:13;;;;;;;0.20;0.10;;;;;;;;;;6150651;23;20020;-85
2022/07/09 19:56:40;;;;;;;0.20;0.10;;;;;;;;;;6123968;23;20017;-89
2022/07/09 19:59:06;;;;;;;0.20;0.10;;;;;;;;;;6124570;23;20390;-86
2022/07/09 20:01:32;;;;;;;0.20;0.10;;;;;;;;;;6076121;23;20018;-87
2022/07/09 20:04:02;;;;;;;0.20;0.10;;;;;;;;;;6123843;23;20060;-88
2022/07/09 20:06:28;;;;;;;0.20;0.10;;;;;;;;;;6123703;23;20018;-88
2022/07/09 20:08:54;;;;;;;0.20;0.10;;;;;;;;;;6076083;23;20021;-86
2022/07/09 20:11:21;;;;;;;0.20;0.10;;;;;;;;;;6098166;23;20028;-88
2022/07/09 20:13:47;;;;;;;0.20;0.10;;;;;;;;;;6123258;23;20017;-86
2022/07/09 20:16:13;;;;;;;0.20;0.10;;;;;;;;;;6122913;23;20020;-86
2022/07/09 20:18:39;;;;;;;0.20;0.10;;;;;;;;;;6121215;23;20101;-85
2022/07/09 20:21:06;;;;;;;0.20;0.10;;;;;;;;;;6070833;23;20029;-86
2022/07/09 20:23:32;;;;;;;0.20;0.10;;;;;;;;;;6124055;23;20117;-85
2022/07/09 20:25:58;;;;;;;0.20;0.10;;;;;;;;;;6099956;23;20018;-86
2022/07/09 20:28:24;;;;;;;0.20;0.00;;;;;;;;;;6075092;23;20013;-84
2022/07/09 20:30:50;;;;;;;0.20;0.10;;;;;;;;;;6099989;23;20398;-87
2022/07/09 20:33:16;;;;;;;0.20;0.10;;;;;;;;;;6074506;23;20016;-84
2022/07/09 20:35:43;;;;;;;0.20;0.03;;;;;;;;;;6098787;23;20416;-87
2022/07/09 20:38:09;;;;;;;0.20;0.10;;;;;;;;;;6121674;23;20018;-87
2022/07/09 20:40:38;;;;;;;0.20;0.10;;;;;;;;;;6123434;23;20017;-87
2022/07/09 20:43:12;;;;;;;0.20;0.10;;;;;;;;;;6073017;23;20017;-89
2022/07/09 20:45:38;;;;;;;0.20;0.10;;;;;;;;;;6101366;23;20049;-87
2022/07/09 20:48:10;;;;;;;0.20;0.10;;;;;;;;;;6127263;23;20013;-88
2022/07/09 20:50:36;;;;;;;0.20;0.10;;;;;;;;;;6126436;23;20442;-84
2022/07/09 20:53:03;;;;;;;0.20;0.10;;;;;;;;;;6099165;23;20010;-87
2022/07/09 20:55:30;;;;;;;0.20;0.10;;;;;;;;;;6077128;23;20099;-86
2022/07/09 20:57:57;;;;;;;0.20;0.10;;;;;;;;;;6122793;23;20009;-86
2022/07/09 21:00:24;;;;;;;0.20;0.10;;;;;;;;;;6122856;23;20017;-86
2022/07/09 21:02:52;;;;;;;0.20;0.10;;;;;;;;;;6078046;23;20017;-87
2022/07/09 21:05:18;;;;;;;0.20;0.10;;;;;;;;;;6126007;23;20386;-89
2022/07/09 21:07:46;;;;;;;0.20;0.08;;;;;;;;;;6101874;23;20465;-86
2022/07/09 21:10:13;;;;;;;0.20;0.10;;;;;;;;;;6125876;23;20021;-88
2022/07/09 21:12:39;;;;;;;0.20;0.10;;;;;;;;;;6077678;23;20458;-87
2022/07/09 21:15:05;;;;;;;0.20;0.10;;;;;;;;;;6102017;23;20068;-86
2022/07/09 21:20:19;;;;;;;0.20;0.10;;;;;;;;;;6126403;23;20096;-86
2022/07/09 21:22:45;;;;;;;0.20;0.10;;;;;;;;;;6102091;23;20017;-86
2022/07/09 21:25:11;;;;;;;0.20;0.00;;;;;;;;;;6126211;23;20025;-87
2022/07/09 21:27:37;;;;;;;0.20;0.10;;;;;;;;;;6077780;23;20028;-87
2022/07/09 21:30:03;;;;;;;0.20;0.10;;;;;;;;;;6075414;23;20331;-86
2022/07/09 21:32:30;;;;;;;0.20;0.10;;;;;;;;;;6125737;23;20013;-87